Time;durP1;ratioP1;P1;durP2;ratioP2;P2;SDS_P1;SDS_P2;PMS_P1;PMS_P2;Temp;Humidity;BMP_temperature;BMP_pressure;BME280_temperature;BME280_humidity;BME280_pressure;Samples;Min_cycle;Max_cycle;Signal;HPM_P1;HPM_P2
2022/04/10 00:01:33;;;;;;;11.90;1.20;;;;;;;;;;5080668;28;20050;-62
2022/04/10 00:03:59;;;;;;;15.52;1.30;;;;;;;;;;5096113;28;20097;-62
2022/04/10 00:06:25;;;;;;;14.13;1.67;;;;;;;;;;5094527;28;20438;-63
2022/04/10 00:08:51;;;;;;;13.38;1.13;;;;;;;;;;5087066;28;20485;-62
2022/04/10 00:11:18;;;;;;;20.02;2.17;;;;;;;;;;5098218;28;20032;-61
2022/04/10 00:13:44;;;;;;;13.43;1.70;;;;;;;;;;5098048;28;20042;-62
2022/04/10 00:16:10;;;;;;;17.13;2.50;;;;;;;;;;5075200;28;20046;-63
2022/04/10 00:18:37;;;;;;;14.73;1.90;;;;;;;;;;5084716;28;20101;-63
2022/04/10 00:21:04;;;;;;;13.02;1.48;;;;;;;;;;5080373;28;20474;-62
2022/04/10 00:23:31;;;;;;;16.95;1.88;;;;;;;;;;5091876;28;20091;-62
2022/04/10 00:25:57;;;;;;;15.75;2.03;;;;;;;;;;5099915;28;20553;-62
2022/04/10 00:28:23;;;;;;;17.02;1.85;;;;;;;;;;5111322;28;20039;-60
2022/04/10 00:30:49;;;;;;;15.50;2.25;;;;;;;;;;5111328;28;20043;-61
2022/04/10 00:33:15;;;;;;;21.20;3.20;;;;;;;;;;5111694;28;20046;-62
2022/04/10 00:35:41;;;;;;;17.90;2.25;;;;;;;;;;5098058;28;20539;-61
2022/04/10 00:38:07;;;;;;;17.27;2.03;;;;;;;;;;5097136;28;20043;-61
2022/04/10 00:40:33;;;;;;;23.55;2.97;;;;;;;;;;5097760;28;20035;-61
2022/04/10 00:43:00;;;;;;;23.20;2.83;;;;;;;;;;5099611;28;20081;-61
2022/04/10 00:45:26;;;;;;;19.73;2.53;;;;;;;;;;5075983;28;20088;-61
2022/04/10 00:47:52;;;;;;;19.80;2.55;;;;;;;;;;5099286;28;20147;-62
2022/04/10 00:50:19;;;;;;;25.08;2.90;;;;;;;;;;5096095;28;20028;-61
2022/04/10 00:52:46;;;;;;;28.20;3.28;;;;;;;;;;5094196;28;20042;-61
2022/04/10 00:55:12;;;;;;;27.52;2.72;;;;;;;;;;5090156;28;20032;-61
2022/04/10 00:57:39;;;;;;;22.55;3.08;;;;;;;;;;5095433;28;20044;-62
2022/04/10 01:00:06;;;;;;;18.52;2.58;;;;;;;;;;5098122;28;20031;-61
2022/04/10 01:02:32;;;;;;;18.15;2.40;;;;;;;;;;5097675;28;20040;-63
2022/04/10 01:04:58;;;;;;;20.58;2.30;;;;;;;;;;5095824;28;20043;-60
2022/04/10 01:07:26;;;;;;;19.27;2.17;;;;;;;;;;5102571;28;20035;-61
2022/04/10 01:09:52;;;;;;;21.25;3.05;;;;;;;;;;5086429;28;20305;-61
2022/04/10 01:12:18;;;;;;;21.30;2.60;;;;;;;;;;5092051;28;20035;-62
2022/04/10 01:14:44;;;;;;;17.27;2.05;;;;;;;;;;5096242;28;20092;-61
2022/04/10 01:17:10;;;;;;;21.67;2.80;;;;;;;;;;5097571;28;20050;-61
2022/04/10 01:19:40;;;;;;;17.40;2.00;;;;;;;;;;5098217;28;20420;-60
2022/04/10 01:22:07;;;;;;;22.65;2.13;;;;;;;;;;5091865;28;20481;-61
2022/04/10 01:24:40;;;;;;;20.80;2.80;;;;;;;;;;5096516;28;20569;-59
2022/04/10 01:27:06;;;;;;;19.50;3.10;;;;;;;;;;5095242;28;20028;-60
2022/04/10 01:29:32;;;;;;;19.73;2.45;;;;;;;;;;5100572;28;20093;-60
2022/04/10 01:31:58;;;;;;;21.70;1.80;;;;;;;;;;5099005;28;20035;-59
2022/04/10 01:34:25;;;;;;;17.63;2.35;;;;;;;;;;5100547;28;20042;-59
2022/04/10 01:36:51;;;;;;;22.63;2.40;;;;;;;;;;5100970;28;20082;-60
2022/04/10 01:39:17;;;;;;;16.92;2.60;;;;;;;;;;5099331;28;20027;-62
2022/04/10 01:41:46;;;;;;;21.05;2.35;;;;;;;;;;5081639;28;20039;-59
2022/04/10 01:44:12;;;;;;;21.50;2.70;;;;;;;;;;5099747;28;20070;-60
2022/04/10 01:46:39;;;;;;;25.58;2.90;;;;;;;;;;5095392;28;20168;-60
2022/04/10 01:49:06;;;;;;;18.35;2.22;;;;;;;;;;5102175;28;20903;-61
2022/04/10 01:51:32;;;;;;;21.25;2.75;;;;;;;;;;5098547;28;20331;-61
2022/04/10 01:53:58;;;;;;;18.27;2.10;;;;;;;;;;5101352;28;20543;-60
2022/04/10 01:56:24;;;;;;;20.23;2.22;;;;;;;;;;5094557;28;20126;-60
2022/04/10 01:58:52;;;;;;;17.83;2.47;;;;;;;;;;5091183;28;20089;-60
2022/04/10 02:01:18;;;;;;;22.92;2.30;;;;;;;;;;5096864;28;20114;-60
2022/04/10 02:03:46;;;;;;;18.35;2.13;;;;;;;;;;5081873;28;20477;-60
2022/04/10 02:06:13;;;;;;;18.33;1.77;;;;;;;;;;5103762;28;20059;-59
2022/04/10 02:08:41;;;;;;;22.42;2.75;;;;;;;;;;5099767;28;20483;-60
2022/04/10 02:11:11;;;;;;;22.45;2.47;;;;;;;;;;5100128;28;20052;-60
2022/04/10 02:13:37;;;;;;;16.13;2.35;;;;;;;;;;5102444;28;20055;-61
2022/04/10 02:16:04;;;;;;;20.02;2.90;;;;;;;;;;5098354;28;20052;-59
2022/04/10 02:18:31;;;;;;;16.77;2.15;;;;;;;;;;5101539;28;20051;-60
2022/04/10 02:20:57;;;;;;;16.80;2.25;;;;;;;;;;5100086;28;20477;-60
2022/04/10 02:23:23;;;;;;;22.25;2.95;;;;;;;;;;5097665;28;20043;-61
2022/04/10 02:25:49;;;;;;;18.35;2.40;;;;;;;;;;5102023;28;20100;-60
2022/04/10 02:28:15;;;;;;;20.00;2.22;;;;;;;;;;5094208;28;20497;-60
2022/04/10 02:30:41;;;;;;;23.10;2.50;;;;;;;;;;5095575;28;20385;-61
2022/04/10 02:33:07;;;;;;;12.90;1.42;;;;;;;;;;5098447;28;20371;-60
2022/04/10 02:35:33;;;;;;;14.23;1.40;;;;;;;;;;5106440;28;20046;-60
2022/04/10 02:37:59;;;;;;;12.55;1.48;;;;;;;;;;5091590;28;20028;-61
2022/04/10 02:40:25;;;;;;;16.75;1.88;;;;;;;;;;5095617;28;20089;-61
2022/04/10 02:42:51;;;;;;;15.32;2.17;;;;;;;;;;5099173;28;20027;-61
2022/04/10 02:45:17;;;;;;;14.32;2.28;;;;;;;;;;5103408;28;20494;-61
2022/04/10 02:47:43;;;;;;;16.60;1.75;;;;;;;;;;5098927;28;20477;-62
2022/04/10 02:50:09;;;;;;;22.65;2.20;;;;;;;;;;5093812;28;20032;-61
2022/04/10 02:52:35;;;;;;;20.10;2.00;;;;;;;;;;5082113;28;20056;-62
2022/04/10 02:55:02;;;;;;;18.50;2.38;;;;;;;;;;5102545;28;20044;-63
2022/04/10 02:57:28;;;;;;;14.45;2.05;;;;;;;;;;5096417;28;20412;-63
2022/04/10 02:59:54;;;;;;;17.67;2.05;;;;;;;;;;5092525;28;20039;-63
2022/04/10 03:02:20;;;;;;;22.27;3.13;;;;;;;;;;5089909;28;20474;-62
2022/04/10 03:04:46;;;;;;;19.10;2.17;;;;;;;;;;5093394;28;20516;-64
2022/04/10 03:07:12;;;;;;;19.27;3.03;;;;;;;;;;5123038;27;20561;-62
2022/04/10 03:09:38;;;;;;;17.77;2.10;;;;;;;;;;5101416;28;20039;-62
2022/04/10 03:12:04;;;;;;;19.27;2.30;;;;;;;;;;5093212;28;20115;-62
2022/04/10 03:14:31;;;;;;;17.27;1.67;;;;;;;;;;5095364;28;20154;-62
2022/04/10 03:16:57;;;;;;;16.63;1.80;;;;;;;;;;5099710;28;20071;-63
2022/04/10 03:19:23;;;;;;;11.32;1.42;;;;;;;;;;5090721;28;20048;-62
2022/04/10 03:21:49;;;;;;;12.52;1.33;;;;;;;;;;5091232;28;20079;-63
2022/04/10 03:24:15;;;;;;;13.20;1.40;;;;;;;;;;5091403;28;20119;-63
2022/04/10 03:26:41;;;;;;;13.75;1.40;;;;;;;;;;5088353;28;20048;-62
2022/04/10 03:29:07;;;;;;;12.52;1.10;;;;;;;;;;5092535;28;20509;-62
2022/04/10 03:31:33;;;;;;;14.27;1.20;;;;;;;;;;5094439;28;20478;-62
2022/04/10 03:33:59;;;;;;;10.63;0.70;;;;;;;;;;5094973;28;20401;-61
2022/04/10 03:36:25;;;;;;;5.57;0.68;;;;;;;;;;5089722;28;20048;-62
2022/04/10 03:38:51;;;;;;;7.53;0.77;;;;;;;;;;5089383;28;20089;-63
2022/04/10 03:41:17;;;;;;;6.88;0.68;;;;;;;;;;5091547;28;20044;-63
2022/04/10 03:43:44;;;;;;;8.18;0.50;;;;;;;;;;5091546;28;20032;-62
2022/04/10 03:46:10;;;;;;;7.70;0.40;;;;;;;;;;5093048;28;20142;-64
2022/04/10 03:48:36;;;;;;;7.32;0.47;;;;;;;;;;5096525;28;20047;-64
2022/04/10 03:51:02;;;;;;;4.47;0.60;;;;;;;;;;5098568;28;20031;-64
2022/04/10 03:53:28;;;;;;;11.43;1.50;;;;;;;;;;5094502;28;20028;-63
2022/04/10 03:55:54;;;;;;;10.50;1.08;;;;;;;;;;5079805;28;20032;-62
2022/04/10 03:58:21;;;;;;;9.45;0.90;;;;;;;;;;5080504;28;20044;-63
2022/04/10 04:00:47;;;;;;;10.90;1.23;;;;;;;;;;5091527;28;20040;-63
2022/04/10 04:03:14;;;;;;;15.75;1.52;;;;;;;;;;5096383;28;20118;-63
2022/04/10 04:05:40;;;;;;;16.50;2.17;;;;;;;;;;5083037;28;20135;-63
2022/04/10 04:08:06;;;;;;;13.52;1.55;;;;;;;;;;5107196;27;20047;-61
2022/04/10 04:10:33;;;;;;;17.23;1.83;;;;;;;;;;5099081;28;20119;-63
2022/04/10 04:12:59;;;;;;;10.75;1.73;;;;;;;;;;5082057;28;20050;-63
2022/04/10 04:15:26;;;;;;;13.75;1.55;;;;;;;;;;5096923;28;20497;-63
2022/04/10 04:17:52;;;;;;;17.08;1.73;;;;;;;;;;5093748;28;20047;-62
2022/04/10 04:20:18;;;;;;;9.70;0.90;;;;;;;;;;5098181;28;20501;-63
2022/04/10 04:22:45;;;;;;;9.98;0.77;;;;;;;;;;5076568;28;20154;-63
2022/04/10 04:25:11;;;;;;;7.85;0.77;;;;;;;;;;5099145;28;20047;-62
2022/04/10 04:27:38;;;;;;;7.18;0.73;;;;;;;;;;5103447;28;20040;-63
2022/04/10 04:30:05;;;;;;;11.20;1.33;;;;;;;;;;5097111;28;20374;-63
2022/04/10 04:32:32;;;;;;;7.30;0.70;;;;;;;;;;5089507;28;20047;-63
2022/04/10 04:34:59;;;;;;;9.38;1.08;;;;;;;;;;5103517;28;20068;-64
2022/04/10 04:37:25;;;;;;;11.63;1.25;;;;;;;;;;5106391;28;20035;-64
2022/04/10 04:39:51;;;;;;;5.30;0.73;;;;;;;;;;5092057;28;20046;-63
2022/04/10 04:42:17;;;;;;;8.38;0.90;;;;;;;;;;5106431;28;20038;-61
2022/04/10 04:44:43;;;;;;;5.80;0.50;;;;;;;;;;5108968;28;20460;-61
2022/04/10 04:47:09;;;;;;;9.02;1.13;;;;;;;;;;5109600;28;20039;-61
2022/04/10 04:49:35;;;;;;;5.82;0.60;;;;;;;;;;5109552;28;20043;-63
2022/04/10 04:52:01;;;;;;;9.93;1.15;;;;;;;;;;5091108;28;20035;-63
2022/04/10 04:54:27;;;;;;;4.93;0.60;;;;;;;;;;5105811;28;20043;-63
2022/04/10 04:56:53;;;;;;;8.40;0.50;;;;;;;;;;5090721;28;20043;-62
2022/04/10 04:59:19;;;;;;;8.35;0.90;;;;;;;;;;5082186;28;20047;-62
2022/04/10 05:01:45;;;;;;;8.13;0.60;;;;;;;;;;5100121;28;20036;-61
2022/04/10 05:04:12;;;;;;;8.82;0.93;;;;;;;;;;5109883;28;20039;-62
2022/04/10 05:06:38;;;;;;;4.68;0.55;;;;;;;;;;5106978;28;20039;-63
2022/04/10 05:09:05;;;;;;;6.72;0.60;;;;;;;;;;5107903;28;20031;-62
2022/04/10 05:11:32;;;;;;;6.55;0.70;;;;;;;;;;5100971;28;20481;-63
2022/04/10 05:13:58;;;;;;;7.20;0.50;;;;;;;;;;5109144;28;20388;-62
2022/04/10 05:16:24;;;;;;;10.55;1.02;;;;;;;;;;5106266;28;20035;-62
2022/04/10 05:18:50;;;;;;;9.32;1.10;;;;;;;;;;5089834;28;20063;-63
2022/04/10 05:21:16;;;;;;;6.70;0.52;;;;;;;;;;5085720;28;20477;-62
2022/04/10 05:23:42;;;;;;;8.05;0.80;;;;;;;;;;5107584;28;20128;-62
2022/04/10 05:26:08;;;;;;;14.93;1.33;;;;;;;;;;5106313;28;20055;-62
2022/04/10 05:28:35;;;;;;;9.43;1.00;;;;;;;;;;5108488;28;20035;-62
2022/04/10 05:31:01;;;;;;;10.48;1.10;;;;;;;;;;5106534;28;20047;-62
2022/04/10 05:33:28;;;;;;;10.38;1.00;;;;;;;;;;5103789;28;20108;-62
2022/04/10 05:35:55;;;;;;;13.80;1.48;;;;;;;;;;5107669;28;20043;-64
2022/04/10 05:38:22;;;;;;;12.63;1.05;;;;;;;;;;5109011;28;20123;-62
2022/04/10 05:40:52;;;;;;;13.25;1.05;;;;;;;;;;5107719;28;20040;-61
2022/04/10 05:43:22;;;;;;;11.15;1.30;;;;;;;;;;5087821;28;20043;-63
2022/04/10 05:45:49;;;;;;;14.25;1.50;;;;;;;;;;5107126;28;20096;-62
2022/04/10 05:48:15;;;;;;;15.15;1.77;;;;;;;;;;5106632;28;20374;-63
2022/04/10 05:50:42;;;;;;;10.60;1.20;;;;;;;;;;5102858;28;20039;-62
2022/04/10 05:53:08;;;;;;;9.25;0.85;;;;;;;;;;5106678;28;20096;-61
2022/04/10 05:55:35;;;;;;;10.77;1.35;;;;;;;;;;5104702;28;20643;-62
2022/04/10 05:58:01;;;;;;;8.43;1.70;;;;;;;;;;5105220;28;20091;-62
2022/04/10 06:00:27;;;;;;;16.63;1.33;;;;;;;;;;5104098;28;20070;-64
2022/04/10 06:02:54;;;;;;;10.98;1.00;;;;;;;;;;5103383;28;20036;-63
2022/04/10 06:05:20;;;;;;;5.90;0.82;;;;;;;;;;5104372;28;20719;-62
2022/04/10 06:07:46;;;;;;;8.48;0.60;;;;;;;;;;5104844;28;20039;-62
2022/04/10 06:10:12;;;;;;;5.75;0.68;;;;;;;;;;5099452;28;20563;-62
2022/04/10 06:12:38;;;;;;;10.82;0.98;;;;;;;;;;5083704;28;20084;-62
2022/04/10 06:15:05;;;;;;;8.32;1.42;;;;;;;;;;5087573;28;20401;-62
2022/04/10 06:17:31;;;;;;;10.13;0.70;;;;;;;;;;5087021;28;20056;-61
2022/04/10 06:19:58;;;;;;;12.60;1.48;;;;;;;;;;5088669;28;20048;-62
2022/04/10 06:22:24;;;;;;;8.98;1.10;;;;;;;;;;5088699;28;20379;-62
2022/04/10 06:24:51;;;;;;;6.20;0.70;;;;;;;;;;5087746;28;20660;-61
2022/04/10 06:27:17;;;;;;;7.32;0.80;;;;;;;;;;5084043;28;20050;-62
2022/04/10 06:29:43;;;;;;;9.20;0.93;;;;;;;;;;5106445;28;20036;-61
2022/04/10 06:32:09;;;;;;;8.00;0.73;;;;;;;;;;5087357;28;20122;-62
2022/04/10 06:34:35;;;;;;;6.07;0.80;;;;;;;;;;5087422;28;20070;-62
2022/04/10 06:37:01;;;;;;;8.25;0.88;;;;;;;;;;5105912;28;20438;-62
2022/04/10 06:39:28;;;;;;;6.97;0.50;;;;;;;;;;5105136;28;20035;-62
2022/04/10 06:41:54;;;;;;;10.38;1.15;;;;;;;;;;5090063;28;20113;-62
2022/04/10 06:44:20;;;;;;;7.45;0.88;;;;;;;;;;5106713;28;20043;-62
2022/04/10 06:46:47;;;;;;;4.93;0.70;;;;;;;;;;5107913;28;20040;-62
2022/04/10 06:49:13;;;;;;;6.75;0.60;;;;;;;;;;5106285;28;20048;-62
2022/04/10 06:51:40;;;;;;;4.78;0.50;;;;;;;;;;5107866;28;20474;-61
2022/04/10 06:54:07;;;;;;;5.00;0.90;;;;;;;;;;5103271;28;20067;-62
2022/04/10 06:56:33;;;;;;;6.43;0.73;;;;;;;;;;5085343;28;20067;-62
2022/04/10 06:58:59;;;;;;;11.32;0.90;;;;;;;;;;5107414;28;20353;-63
2022/04/10 07:01:25;;;;;;;8.93;1.05;;;;;;;;;;5105840;28;20574;-62
2022/04/10 07:03:51;;;;;;;9.13;1.02;;;;;;;;;;5106258;28;20086;-61
2022/04/10 07:06:17;;;;;;;8.25;1.02;;;;;;;;;;5104040;28;20047;-62
2022/04/10 07:08:43;;;;;;;11.27;1.10;;;;;;;;;;5106947;28;20488;-62
2022/04/10 07:11:10;;;;;;;9.43;1.00;;;;;;;;;;5102467;28;20154;-62
2022/04/10 07:13:36;;;;;;;11.25;1.30;;;;;;;;;;5099676;28;20051;-61
2022/04/10 07:16:24;;;;;;;13.02;1.40;;;;;;;;;;5102220;28;20085;-62
2022/04/10 07:18:50;;;;;;;10.00;1.00;;;;;;;;;;5107121;28;20059;-61
2022/04/10 07:23:41;;;;;;;15.48;1.40;;;;;;;;;;5089148;28;20377;-60
2022/04/10 07:24:02;;;;;;;11.05;1.20;;;;;;;;;;5126989;27;20063;-62
2022/04/10 07:26:29;;;;;;;9.73;1.30;;;;;;;;;;5107849;28;20069;-61
2022/04/10 07:28:55;;;;;;;12.88;1.35;;;;;;;;;;5106557;28;20042;-62
2022/04/10 07:31:21;;;;;;;8.50;0.88;;;;;;;;;;5110050;28;20047;-61
2022/04/10 07:33:47;;;;;;;6.00;0.70;;;;;;;;;;5108984;28;20043;-61
2022/04/10 07:36:13;;;;;;;9.68;0.65;;;;;;;;;;5109249;28;20039;-60
2022/04/10 07:38:39;;;;;;;8.50;0.85;;;;;;;;;;5098859;28;20131;-61
2022/04/10 07:41:05;;;;;;;10.73;1.20;;;;;;;;;;5090195;28;20386;-61
2022/04/10 07:43:32;;;;;;;8.93;0.90;;;;;;;;;;5104947;28;20119;-60
2022/04/10 07:48:42;;;;;;;10.75;0.93;;;;;;;;;;5107820;28;20054;-62
2022/04/10 07:51:09;;;;;;;13.07;1.35;;;;;;;;;;5087983;28;20059;-61
2022/04/10 07:53:35;;;;;;;12.48;0.95;;;;;;;;;;5107950;28;20130;-61
2022/04/10 07:56:01;;;;;;;12.52;0.90;;;;;;;;;;5087347;28;20035;-62
2022/04/10 07:58:27;;;;;;;9.85;1.02;;;;;;;;;;5109285;28;20043;-62
2022/04/10 08:00:53;;;;;;;10.00;1.23;;;;;;;;;;5101925;28;20043;-61
2022/04/10 08:03:19;;;;;;;9.15;0.90;;;;;;;;;;5107915;28;20507;-62
2022/04/10 08:05:45;;;;;;;11.00;1.00;;;;;;;;;;5109316;28;20089;-62
2022/04/10 08:08:11;;;;;;;14.02;1.52;;;;;;;;;;5108116;28;20035;-61
2022/04/10 08:10:39;;;;;;;11.65;1.30;;;;;;;;;;5108402;28;20081;-62
2022/04/10 08:13:05;;;;;;;9.25;0.98;;;;;;;;;;5105557;28;20054;-62
2022/04/10 08:15:31;;;;;;;5.55;0.50;;;;;;;;;;5105639;28;20086;-62
2022/04/10 08:17:57;;;;;;;7.05;0.55;;;;;;;;;;5091286;28;20369;-61
2022/04/10 08:20:24;;;;;;;8.88;0.70;;;;;;;;;;5107717;28;20054;-61
2022/04/10 08:22:53;;;;;;;8.70;0.90;;;;;;;;;;5075069;28;20040;-62
2022/04/10 08:25:23;;;;;;;7.53;0.75;;;;;;;;;;5092713;28;20036;-61
2022/04/10 08:27:49;;;;;;;11.95;1.52;;;;;;;;;;5102764;28;20448;-61
2022/04/10 08:30:15;;;;;;;9.55;0.90;;;;;;;;;;5108688;28;20067;-60
2022/04/10 08:32:42;;;;;;;7.32;0.88;;;;;;;;;;5104123;28;20042;-61
2022/04/10 08:35:09;;;;;;;10.15;0.80;;;;;;;;;;5107257;28;20079;-61
2022/04/10 08:37:35;;;;;;;10.80;0.88;;;;;;;;;;5106033;28;20043;-63
2022/04/10 08:40:01;;;;;;;9.20;1.23;;;;;;;;;;5107652;28;20118;-62
2022/04/10 08:42:27;;;;;;;10.15;1.38;;;;;;;;;;5104745;28;20040;-62
2022/04/10 08:44:55;;;;;;;11.00;0.95;;;;;;;;;;5094362;28;20097;-62
2022/04/10 08:47:22;;;;;;;10.35;1.30;;;;;;;;;;5095692;28;20568;-62
2022/04/10 08:49:48;;;;;;;9.65;0.70;;;;;;;;;;5104377;28;20047;-61
2022/04/10 08:52:18;;;;;;;10.05;1.02;;;;;;;;;;5103615;28;20038;-61
2022/04/10 08:54:44;;;;;;;9.65;1.20;;;;;;;;;;5106483;28;20042;-62
2022/04/10 08:57:11;;;;;;;7.90;0.73;;;;;;;;;;5104006;28;20039;-61
2022/04/10 08:59:37;;;;;;;7.55;0.90;;;;;;;;;;5087533;28;20107;-62
2022/04/10 09:02:04;;;;;;;11.80;1.15;;;;;;;;;;5089841;28;20048;-62
2022/04/10 09:04:31;;;;;;;9.05;1.38;;;;;;;;;;5107238;28;20088;-62
2022/04/10 09:07:05;;;;;;;10.38;1.00;;;;;;;;;;5107245;28;20043;-61
2022/04/10 09:09:32;;;;;;;13.43;1.58;;;;;;;;;;5109181;28;20067;-62
2022/04/10 09:11:58;;;;;;;9.25;0.70;;;;;;;;;;5114538;27;20043;-62
2022/04/10 09:14:25;;;;;;;8.05;0.70;;;;;;;;;;5082668;28;20039;-62
2022/04/10 09:17:10;;;;;;;8.30;0.63;;;;;;;;;;5104143;28;20093;-62
2022/04/10 09:19:37;;;;;;;8.43;0.65;;;;;;;;;;5094117;28;20048;-62
2022/04/10 09:22:23;;;;;;;7.90;0.82;;;;;;;;;;5076972;28;20087;-61
2022/04/10 09:25:01;;;;;;;10.68;1.52;;;;;;;;;;5107940;28;20043;-62
2022/04/10 09:27:35;;;;;;;9.70;0.80;;;;;;;;;;5106338;28;20403;-62
2022/04/10 09:30:01;;;;;;;9.02;0.63;;;;;;;;;;5088793;28;20854;-61
2022/04/10 09:32:37;;;;;;;6.43;0.60;;;;;;;;;;5088528;28;20040;-62
2022/04/10 09:35:04;;;;;;;6.63;0.80;;;;;;;;;;5096776;28;20047;-60
2022/04/10 09:37:30;;;;;;;9.65;0.75;;;;;;;;;;5082705;28;20136;-61
2022/04/10 09:40:17;;;;;;;8.32;0.70;;;;;;;;;;5087675;28;20050;-62
2022/04/10 09:42:43;;;;;;;8.35;0.80;;;;;;;;;;5106825;28;20427;-61
2022/04/10 09:45:29;;;;;;;9.25;0.70;;;;;;;;;;5091865;28;20428;-61
2022/04/10 09:47:55;;;;;;;9.02;0.75;;;;;;;;;;5107756;28;20050;-62
2022/04/10 09:50:31;;;;;;;6.88;0.60;;;;;;;;;;5109585;28;20126;-60
2022/04/10 09:52:58;;;;;;;9.02;1.42;;;;;;;;;;5108100;28;20039;-61
2022/04/10 09:55:34;;;;;;;13.27;1.83;;;;;;;;;;5073404;28;20051;-60
2022/04/10 09:58:01;;;;;;;8.00;1.27;;;;;;;;;;5090286;28;20036;-60
2022/04/10 10:00:28;;;;;;;5.70;0.57;;;;;;;;;;5088880;28;20085;-60
2022/04/10 10:02:54;;;;;;;5.18;0.50;;;;;;;;;;5089683;28;20429;-60
2022/04/10 10:05:20;;;;;;;5.68;0.47;;;;;;;;;;5094756;28;20430;-60
2022/04/10 10:07:48;;;;;;;4.43;0.40;;;;;;;;;;5098905;28;20031;-61
2022/04/10 10:10:20;;;;;;;4.18;0.30;;;;;;;;;;5120356;27;20047;-60
2022/04/10 10:12:46;;;;;;;5.85;0.40;;;;;;;;;;5092809;28;20046;-59
2022/04/10 10:15:13;;;;;;;4.40;0.35;;;;;;;;;;5080036;28;20485;-60
2022/04/10 10:17:39;;;;;;;4.72;0.45;;;;;;;;;;5098349;28;20132;-62
2022/04/10 10:20:07;;;;;;;5.95;0.63;;;;;;;;;;5072826;28;20175;-61
2022/04/10 10:22:33;;;;;;;7.15;0.60;;;;;;;;;;5106939;28;20039;-61
2022/04/10 10:25:07;;;;;;;8.10;1.25;;;;;;;;;;5108156;28;20032;-61
2022/04/10 10:27:52;;;;;;;8.52;0.50;;;;;;;;;;5042358;28;20498;-62
2022/04/10 10:30:30;;;;;;;5.22;0.98;;;;;;;;;;5055932;28;20105;-61
2022/04/10 10:33:10;;;;;;;8.82;1.30;;;;;;;;;;5050532;28;20048;-61
2022/04/10 10:35:40;;;;;;;8.25;1.40;;;;;;;;;;5050409;28;20084;-61
2022/04/10 10:38:22;;;;;;;7.75;1.10;;;;;;;;;;5051693;28;20033;-62
2022/04/10 10:40:49;;;;;;;6.32;0.75;;;;;;;;;;5051386;28;20076;-62
2022/04/10 10:43:20;;;;;;;7.93;0.80;;;;;;;;;;5052325;28;20033;-61
2022/04/10 10:45:46;;;;;;;9.95;0.85;;;;;;;;;;5050476;28;20045;-61
2022/04/10 10:48:31;;;;;;;8.18;1.23;;;;;;;;;;5048897;28;20045;-62
2022/04/10 10:51:01;;;;;;;10.57;0.80;;;;;;;;;;5045187;28;20037;-61
2022/04/10 10:53:55;;;;;;;10.75;1.23;;;;;;;;;;5049051;28;20045;-61
2022/04/10 10:56:22;;;;;;;8.63;1.10;;;;;;;;;;5065021;28;20060;-61
2022/04/10 10:58:49;;;;;;;6.82;0.70;;;;;;;;;;5050327;28;20036;-61
2022/04/10 11:01:18;;;;;;;10.02;1.15;;;;;;;;;;5050877;28;20041;-61
2022/04/10 11:04:01;;;;;;;9.27;1.00;;;;;;;;;;5053982;28;20457;-60
2022/04/10 11:06:33;;;;;;;6.70;0.70;;;;;;;;;;5053660;28;20071;-61
2022/04/10 11:09:18;;;;;;;9.85;1.00;;;;;;;;;;5052003;28;20044;-62
2022/04/10 11:11:44;;;;;;;8.95;0.80;;;;;;;;;;5050423;28;20056;-61
2022/04/10 11:14:29;;;;;;;7.03;0.77;;;;;;;;;;5034228;28;20079;-61
2022/04/10 11:16:55;;;;;;;9.65;0.70;;;;;;;;;;5052999;28;20041;-61
2022/04/10 11:19:23;;;;;;;9.80;0.77;;;;;;;;;;5056914;28;20093;-62
2022/04/10 11:21:49;;;;;;;7.88;0.68;;;;;;;;;;5033025;28;20041;-61
2022/04/10 11:24:24;;;;;;;7.20;0.65;;;;;;;;;;5055944;28;20399;-61
2022/04/10 11:26:50;;;;;;;7.20;0.60;;;;;;;;;;5052863;28;20058;-61
2022/04/10 11:29:20;;;;;;;6.78;0.52;;;;;;;;;;5052153;28;20394;-61
2022/04/10 11:31:51;;;;;;;6.75;0.75;;;;;;;;;;5055057;28;20041;-62
2022/04/10 11:34:25;;;;;;;8.43;0.68;;;;;;;;;;5057452;28;20036;-62
2022/04/10 11:36:54;;;;;;;6.43;0.70;;;;;;;;;;5059686;28;20045;-61
2022/04/10 11:39:23;;;;;;;6.72;0.60;;;;;;;;;;5059101;28;20048;-61
2022/04/10 11:41:50;;;;;;;6.40;0.70;;;;;;;;;;5053276;28;20615;-61
2022/04/10 11:44:17;;;;;;;8.40;0.82;;;;;;;;;;5071921;28;20041;-61
2022/04/10 11:46:46;;;;;;;9.63;1.10;;;;;;;;;;5053921;28;20120;-60
2022/04/10 11:49:13;;;;;;;5.47;0.63;;;;;;;;;;5051414;28;21258;-60
2022/04/10 11:51:59;;;;;;;8.75;0.50;;;;;;;;;;5054368;28;20044;-61
2022/04/10 11:54:26;;;;;;;5.88;0.65;;;;;;;;;;5049554;28;20035;-61
2022/04/10 11:56:52;;;;;;;7.20;0.95;;;;;;;;;;5051381;28;20049;-61
2022/04/10 11:59:19;;;;;;;4.72;0.50;;;;;;;;;;5051888;28;20045;-61
2022/04/10 12:01:46;;;;;;;7.88;0.60;;;;;;;;;;5049371;28;20029;-60
2022/04/10 12:04:12;;;;;;;7.50;0.60;;;;;;;;;;5050698;28;20032;-60
2022/04/10 12:06:38;;;;;;;5.90;0.60;;;;;;;;;;5054896;28;20045;-61
2022/04/10 12:09:04;;;;;;;6.40;0.50;;;;;;;;;;5057719;28;20044;-63
2022/04/10 12:11:41;;;;;;;8.23;0.60;;;;;;;;;;5058517;28;20475;-61
2022/04/10 12:14:16;;;;;;;7.07;0.50;;;;;;;;;;5051818;28;21510;-60
2022/04/10 12:16:43;;;;;;;7.43;0.60;;;;;;;;;;5052520;28;20044;-60
2022/04/10 12:19:09;;;;;;;5.22;0.47;;;;;;;;;;5053315;28;20485;-60
2022/04/10 12:21:36;;;;;;;6.32;0.70;;;;;;;;;;5055676;28;20048;-61
2022/04/10 12:24:03;;;;;;;6.20;0.70;;;;;;;;;;5051875;28;20076;-60
2022/04/10 12:26:30;;;;;;;9.00;0.55;;;;;;;;;;5053834;28;20033;-60
2022/04/10 12:28:57;;;;;;;8.00;0.70;;;;;;;;;;5050759;28;20399;-60
2022/04/10 12:31:23;;;;;;;9.65;0.75;;;;;;;;;;5085535;28;20090;-61
2022/04/10 12:33:49;;;;;;;6.70;0.82;;;;;;;;;;5050757;28;20049;-60
2022/04/10 12:36:20;;;;;;;7.78;0.60;;;;;;;;;;5051570;28;20404;-59
2022/04/10 12:38:50;;;;;;;7.60;0.70;;;;;;;;;;5052520;28;20183;-60
2022/04/10 12:41:25;;;;;;;7.20;0.63;;;;;;;;;;5052436;28;20041;-60
2022/04/10 12:43:59;;;;;;;6.25;0.50;;;;;;;;;;5084697;28;20044;-60
2022/04/10 12:46:32;;;;;;;6.63;0.50;;;;;;;;;;5051126;28;20122;-60
2022/04/10 12:48:58;;;;;;;;;;;;;;;;;;5052556;28;20076;-60
2022/04/10 12:51:24;;;;;;;5.70;0.40;;;;;;;;;;5052007;28;19948;-60
2022/04/10 12:53:50;;;;;;;5.82;0.50;;;;;;;;;;5051639;28;20539;-60
2022/04/10 12:56:20;;;;;;;8.38;0.57;;;;;;;;;;5067111;28;20044;-60
2022/04/10 12:58:47;;;;;;;7.65;0.60;;;;;;;;;;5052030;28;20372;-60
2022/04/10 13:01:23;;;;;;;6.57;0.80;;;;;;;;;;5051805;28;20044;-60
2022/04/10 13:03:49;;;;;;;8.40;0.80;;;;;;;;;;5051689;28;20120;-59
2022/04/10 13:06:16;;;;;;;6.38;0.40;;;;;;;;;;5051326;28;20036;-61
2022/04/10 13:08:43;;;;;;;6.38;0.60;;;;;;;;;;5049300;28;20058;-61
2022/04/10 13:11:10;;;;;;;7.18;0.70;;;;;;;;;;5049216;28;20048;-61
2022/04/10 13:13:54;;;;;;;6.60;0.70;;;;;;;;;;5050247;28;20041;-61
2022/04/10 13:16:26;;;;;;;6.05;1.00;;;;;;;;;;5082674;28;20051;-61
2022/04/10 13:18:52;;;;;;;5.70;0.70;;;;;;;;;;5048646;28;20055;-61
2022/04/10 13:21:18;;;;;;;8.45;0.65;;;;;;;;;;5049415;28;20122;-62
2022/04/10 13:23:45;;;;;;;6.70;0.55;;;;;;;;;;5048575;28;20055;-61
2022/04/10 13:26:11;;;;;;;6.28;0.68;;;;;;;;;;5050136;28;20048;-62
2022/04/10 13:28:37;;;;;;;8.98;0.40;;;;;;;;;;5048877;28;20045;-61
2022/04/10 13:31:03;;;;;;;6.80;0.60;;;;;;;;;;5065300;28;20051;-61
2022/04/10 13:33:29;;;;;;;7.50;0.60;;;;;;;;;;5048205;28;20045;-61
2022/04/10 13:35:55;;;;;;;6.57;0.60;;;;;;;;;;5065493;28;20486;-61
2022/04/10 13:38:21;;;;;;;7.72;0.60;;;;;;;;;;5051439;28;20121;-61
2022/04/10 13:40:47;;;;;;;7.13;0.73;;;;;;;;;;5065949;28;20498;-61
2022/04/10 13:43:13;;;;;;;3.80;0.40;;;;;;;;;;5050055;28;20040;-61
2022/04/10 13:45:39;;;;;;;6.93;0.50;;;;;;;;;;5076109;28;20483;-61
2022/04/10 13:48:05;;;;;;;10.55;0.50;;;;;;;;;;5056505;28;20495;-61
2022/04/10 13:50:31;;;;;;;3.17;0.40;;;;;;;;;;5051177;28;20052;-62
2022/04/10 13:52:57;;;;;;;7.50;0.32;;;;;;;;;;5055959;28;20040;-62
2022/04/10 13:55:24;;;;;;;4.85;0.40;;;;;;;;;;5054038;28;20518;-62
2022/04/10 13:57:50;;;;;;;5.95;0.45;;;;;;;;;;5050240;28;20053;-62
2022/04/10 14:00:16;;;;;;;7.32;0.80;;;;;;;;;;5057366;28;20033;-62
2022/04/10 14:02:42;;;;;;;7.07;0.63;;;;;;;;;;5049345;28;20536;-62
2022/04/10 14:05:09;;;;;;;6.93;0.40;;;;;;;;;;5054577;28;20054;-62
2022/04/10 14:07:35;;;;;;;3.97;0.50;;;;;;;;;;5051205;28;20052;-62
2022/04/10 14:10:01;;;;;;;4.53;0.40;;;;;;;;;;5031306;28;20517;-62
2022/04/10 14:12:28;;;;;;;4.22;0.60;;;;;;;;;;5048104;28;20036;-61
2022/04/10 14:14:56;;;;;;;7.53;0.50;;;;;;;;;;5048239;28;20049;-62
2022/04/10 14:17:22;;;;;;;3.47;0.45;;;;;;;;;;5052152;28;20444;-62
2022/04/10 14:19:48;;;;;;;9.05;0.50;;;;;;;;;;5052903;28;20052;-63
2022/04/10 14:22:14;;;;;;;5.38;0.40;;;;;;;;;;5035594;28;20079;-62
2022/04/10 14:24:41;;;;;;;4.70;0.30;;;;;;;;;;5051078;28;20040;-62
2022/04/10 14:27:07;;;;;;;6.95;0.43;;;;;;;;;;5032456;28;20507;-62
2022/04/10 14:29:35;;;;;;;7.10;0.68;;;;;;;;;;5058198;28;20036;-60
2022/04/10 14:32:05;;;;;;;8.52;0.40;;;;;;;;;;5056885;28;20045;-63
2022/04/10 14:34:35;;;;;;;7.95;0.60;;;;;;;;;;5056946;28;20438;-62
2022/04/10 14:37:01;;;;;;;6.60;0.43;;;;;;;;;;5055198;28;20048;-61
2022/04/10 14:39:27;;;;;;;6.13;0.60;;;;;;;;;;5054392;28;20053;-62
2022/04/10 14:41:54;;;;;;;5.10;0.40;;;;;;;;;;5055307;28;20033;-63
2022/04/10 14:44:20;;;;;;;4.97;0.30;;;;;;;;;;5058513;28;20068;-60